sensor_id;sensor_type;location;lat;lon;timestamp;P1;durP1;ratioP1;P2;durP2;ratioP2
57107;SDS011;42987;52.916;6.542;2022-12-11T00:01:08;122.60;;;48.37;;
57107;SDS011;42987;52.916;6.542;2022-12-11T00:03:34;197.53;;;55.30;;
57107;SDS011;42987;52.916;6.542;2022-12-11T00:06:03;97.40;;;45.63;;
57107;SDS011;42987;52.916;6.542;2022-12-11T00:08:33;106.70;;;47.40;;
57107;SDS011;42987;52.916;6.542;2022-12-11T00:10:59;99.57;;;45.77;;
57107;SDS011;42987;52.916;6.542;2022-12-11T00:13:25;302.67;;;67.70;;
57107;SDS011;42987;52.916;6.542;2022-12-11T00:15:51;185.23;;;56.67;;
57107;SDS011;42987;52.916;6.542;2022-12-11T00:18:16;112.93;;;46.50;;
57107;SDS011;42987;52.916;6.542;2022-12-11T00:20:42;219.80;;;61.00;;
57107;SDS011;42987;52.916;6.542;2022-12-11T00:23:08;96.33;;;42.90;;
57107;SDS011;42987;52.916;6.542;2022-12-11T00:25:39;90.27;;;43.20;;
57107;SDS011;42987;52.916;6.542;2022-12-11T00:28:06;178.37;;;57.07;;
57107;SDS011;42987;52.916;6.542;2022-12-11T00:30:32;114.73;;;47.00;;
57107;SDS011;42987;52.916;6.542;2022-12-11T00:32:57;110.47;;;48.10;;
57107;SDS011;42987;52.916;6.542;2022-12-11T00:35:26;134.30;;;49.67;;
57107;SDS011;42987;52.916;6.542;2022-12-11T00:37:51;112.73;;;48.47;;
57107;SDS011;42987;52.916;6.542;2022-12-11T00:40:17;112.30;;;46.93;;
57107;SDS011;42987;52.916;6.542;2022-12-11T00:42:43;147.20;;;49.87;;
57107;SDS011;42987;52.916;6.542;2022-12-11T00:45:10;105.47;;;45.20;;
57107;SDS011;42987;52.916;6.542;2022-12-11T00:47:35;106.40;;;46.60;;
57107;SDS011;42987;52.916;6.542;2022-12-11T00:50:01;97.17;;;44.10;;
57107;SDS011;42987;52.916;6.542;2022-12-11T00:52:27;153.07;;;51.23;;
57107;SDS011;42987;52.916;6.542;2022-12-11T00:54:53;171.70;;;52.20;;
57107;SDS011;42987;52.916;6.542;2022-12-11T00:57:18;114.43;;;46.90;;
57107;SDS011;42987;52.916;6.542;2022-12-11T00:59:44;142.90;;;50.47;;
57107;SDS011;42987;52.916;6.542;2022-12-11T01:02:10;107.87;;;45.37;;
57107;SDS011;42987;52.916;6.542;2022-12-11T01:04:36;105.00;;;44.87;;
57107;SDS011;42987;52.916;6.542;2022-12-11T01:07:01;99.80;;;42.60;;
57107;SDS011;42987;52.916;6.542;2022-12-11T01:09:27;103.57;;;46.10;;
57107;SDS011;42987;52.916;6.542;2022-12-11T01:12:11;121.73;;;47.87;;
57107;SDS011;42987;52.916;6.542;2022-12-11T01:14:37;117.83;;;47.17;;
57107;SDS011;42987;52.916;6.542;2022-12-11T01:17:03;100.10;;;43.03;;
57107;SDS011;42987;52.916;6.542;2022-12-11T01:19:30;119.73;;;47.17;;
57107;SDS011;42987;52.916;6.542;2022-12-11T01:21:56;119.90;;;47.87;;
57107;SDS011;42987;52.916;6.542;2022-12-11T01:24:21;105.33;;;44.97;;
57107;SDS011;42987;52.916;6.542;2022-12-11T01:26:47;120.93;;;48.47;;
57107;SDS011;42987;52.916;6.542;2022-12-11T01:29:13;134.43;;;49.27;;
57107;SDS011;42987;52.916;6.542;2022-12-11T01:31:39;128.47;;;48.30;;
57107;SDS011;42987;52.916;6.542;2022-12-11T01:34:05;141.10;;;51.80;;
57107;SDS011;42987;52.916;6.542;2022-12-11T01:36:31;226.10;;;57.87;;
57107;SDS011;42987;52.916;6.542;2022-12-11T01:38:57;148.87;;;53.00;;
57107;SDS011;42987;52.916;6.542;2022-12-11T01:41:23;150.73;;;51.80;;
57107;SDS011;42987;52.916;6.542;2022-12-11T01:44:03;143.37;;;51.73;;
57107;SDS011;42987;52.916;6.542;2022-12-11T01:46:49;130.73;;;49.25;;
57107;SDS011;42987;52.916;6.542;2022-12-11T01:49:15;119.27;;;47.43;;
57107;SDS011;42987;52.916;6.542;2022-12-11T01:51:44;146.83;;;50.83;;
57107;SDS011;42987;52.916;6.542;2022-12-11T01:54:16;149.30;;;50.17;;
57107;SDS011;42987;52.916;6.542;2022-12-11T01:56:44;97.73;;;42.53;;
57107;SDS011;42987;52.916;6.542;2022-12-11T01:59:11;130.17;;;47.27;;
57107;SDS011;42987;52.916;6.542;2022-12-11T02:01:52;128.45;;;46.90;;
57107;SDS011;42987;52.916;6.542;2022-12-11T02:04:22;100.67;;;42.77;;
57107;SDS011;42987;52.916;6.542;2022-12-11T02:06:49;100.93;;;42.23;;
57107;SDS011;42987;52.916;6.542;2022-12-11T02:09:18;148.37;;;49.90;;
57107;SDS011;42987;52.916;6.542;2022-12-11T02:11:49;103.55;;;43.13;;
57107;SDS011;42987;52.916;6.542;2022-12-11T02:14:26;94.77;;;39.83;;
57107;SDS011;42987;52.916;6.542;2022-12-11T02:28:24;108.13;;;43.47;;
57107;SDS011;42987;52.916;6.542;2022-12-11T02:31:06;133.13;;;46.38;;
57107;SDS011;42987;52.916;6.542;2022-12-11T02:33:44;100.57;;;39.63;;
57107;SDS011;42987;52.916;6.542;2022-12-11T02:36:18;104.90;;;40.50;;
57107;SDS011;42987;52.916;6.542;2022-12-11T02:38:48;100.35;;;40.00;;
57107;SDS011;42987;52.916;6.542;2022-12-11T02:41:16;95.40;;;39.03;;
57107;SDS011;42987;52.916;6.542;2022-12-11T02:43:44;108.07;;;41.73;;
57107;SDS011;42987;52.916;6.542;2022-12-11T02:46:13;139.67;;;45.43;;
57107;SDS011;42987;52.916;6.542;2022-12-11T02:48:39;102.60;;;39.67;;
57107;SDS011;42987;52.916;6.542;2022-12-11T02:51:06;126.67;;;44.93;;
57107;SDS011;42987;52.916;6.542;2022-12-11T02:53:34;102.73;;;39.53;;
57107;SDS011;42987;52.916;6.542;2022-12-11T02:56:10;106.87;;;40.77;;
57107;SDS011;42987;52.916;6.542;2022-12-11T02:58:53;138.47;;;45.97;;
57107;SDS011;42987;52.916;6.542;2022-12-11T03:01:26;125.13;;;45.00;;
57107;SDS011;42987;52.916;6.542;2022-12-11T03:03:52;87.60;;;38.10;;
57107;SDS011;42987;52.916;6.542;2022-12-11T03:06:19;123.07;;;45.57;;
57107;SDS011;42987;52.916;6.542;2022-12-11T03:08:51;123.40;;;45.00;;
57107;SDS011;42987;52.916;6.542;2022-12-11T03:11:16;101.80;;;40.13;;
57107;SDS011;42987;52.916;6.542;2022-12-11T03:13:43;192.37;;;50.30;;
57107;SDS011;42987;52.916;6.542;2022-12-11T03:16:44;101.57;;;39.73;;
57107;SDS011;42987;52.916;6.542;2022-12-11T03:19:09;111.30;;;43.63;;
57107;SDS011;42987;52.916;6.542;2022-12-11T03:21:52;105.40;;;39.67;;
57107;SDS011;42987;52.916;6.542;2022-12-11T03:24:33;116.83;;;45.20;;
57107;SDS011;42987;52.916;6.542;2022-12-11T03:27:24;194.17;;;51.47;;
57107;SDS011;42987;52.916;6.542;2022-12-11T03:29:57;102.27;;;40.40;;
57107;SDS011;42987;52.916;6.542;2022-12-11T03:32:30;113.10;;;45.10;;
57107;SDS011;42987;52.916;6.542;2022-12-11T03:37:52;123.20;;;44.93;;
57107;SDS011;42987;52.916;6.542;2022-12-11T03:40:21;111.53;;;44.53;;
57107;SDS011;42987;52.916;6.542;2022-12-11T03:42:50;125.97;;;45.83;;
57107;SDS011;42987;52.916;6.542;2022-12-11T03:45:18;100.10;;;40.07;;
57107;SDS011;42987;52.916;6.542;2022-12-11T03:47:45;101.30;;;40.90;;
57107;SDS011;42987;52.916;6.542;2022-12-11T03:50:12;103.03;;;40.90;;
57107;SDS011;42987;52.916;6.542;2022-12-11T03:52:40;118.40;;;43.47;;
57107;SDS011;42987;52.916;6.542;2022-12-11T03:55:09;132.60;;;44.97;;
57107;SDS011;42987;52.916;6.542;2022-12-11T03:57:38;103.77;;;42.00;;
57107;SDS011;42987;52.916;6.542;2022-12-11T04:00:05;109.67;;;43.40;;
57107;SDS011;42987;52.916;6.542;2022-12-11T04:02:33;105.10;;;42.17;;
57107;SDS011;42987;52.916;6.542;2022-12-11T04:04:59;120.47;;;44.53;;
57107;SDS011;42987;52.916;6.542;2022-12-11T04:07:25;124.53;;;43.97;;
57107;SDS011;42987;52.916;6.542;2022-12-11T04:09:51;110.03;;;42.93;;
57107;SDS011;42987;52.916;6.542;2022-12-11T04:12:17;109.07;;;42.40;;
57107;SDS011;42987;52.916;6.542;2022-12-11T04:14:42;124.13;;;43.30;;
57107;SDS011;42987;52.916;6.542;2022-12-11T04:17:30;116.30;;;43.70;;
57107;SDS011;42987;52.916;6.542;2022-12-11T04:20:16;120.77;;;43.87;;
57107;SDS011;42987;52.916;6.542;2022-12-11T04:23:04;120.07;;;45.30;;
57107;SDS011;42987;52.916;6.542;2022-12-11T04:25:50;120.20;;;43.57;;
57107;SDS011;42987;52.916;6.542;2022-12-11T04:28:16;100.50;;;42.23;;
57107;SDS011;42987;52.916;6.542;2022-12-11T04:30:46;121.10;;;45.27;;
57107;SDS011;42987;52.916;6.542;2022-12-11T04:33:13;124.80;;;46.23;;
57107;SDS011;42987;52.916;6.542;2022-12-11T04:35:39;157.23;;;50.03;;
57107;SDS011;42987;52.916;6.542;2022-12-11T04:38:05;128.97;;;47.60;;
57107;SDS011;42987;52.916;6.542;2022-12-11T04:40:31;120.30;;;45.77;;
57107;SDS011;42987;52.916;6.542;2022-12-11T04:42:56;94.90;;;40.97;;
57107;SDS011;42987;52.916;6.542;2022-12-11T04:45:23;119.23;;;44.60;;
57107;SDS011;42987;52.916;6.542;2022-12-11T04:47:48;99.53;;;41.90;;
57107;SDS011;42987;52.916;6.542;2022-12-11T04:50:14;116.60;;;44.53;;
57107;SDS011;42987;52.916;6.542;2022-12-11T04:52:40;116.63;;;45.67;;
57107;SDS011;42987;52.916;6.542;2022-12-11T04:55:06;98.10;;;41.37;;
57107;SDS011;42987;52.916;6.542;2022-12-11T04:57:33;105.17;;;42.80;;
57107;SDS011;42987;52.916;6.542;2022-12-11T04:59:59;98.07;;;41.83;;
57107;SDS011;42987;52.916;6.542;2022-12-11T05:02:26;101.00;;;41.57;;
57107;SDS011;42987;52.916;6.542;2022-12-11T05:04:51;117.93;;;45.43;;
57107;SDS011;42987;52.916;6.542;2022-12-11T05:07:17;108.93;;;44.10;;
57107;SDS011;42987;52.916;6.542;2022-12-11T05:09:43;95.80;;;40.60;;
57107;SDS011;42987;52.916;6.542;2022-12-11T05:12:09;94.97;;;42.00;;
57107;SDS011;42987;52.916;6.542;2022-12-11T05:14:34;96.03;;;40.97;;
57107;SDS011;42987;52.916;6.542;2022-12-11T05:17:00;87.33;;;39.67;;
57107;SDS011;42987;52.916;6.542;2022-12-11T05:19:26;94.37;;;40.97;;
57107;SDS011;42987;52.916;6.542;2022-12-11T05:21:52;98.03;;;40.67;;
57107;SDS011;42987;52.916;6.542;2022-12-11T05:24:18;122.40;;;46.53;;
57107;SDS011;42987;52.916;6.542;2022-12-11T05:26:43;104.00;;;44.30;;
57107;SDS011;42987;52.916;6.542;2022-12-11T05:29:09;118.37;;;45.60;;
57107;SDS011;42987;52.916;6.542;2022-12-11T05:31:35;114.63;;;46.47;;
57107;SDS011;42987;52.916;6.542;2022-12-11T05:34:01;127.10;;;46.83;;
57107;SDS011;42987;52.916;6.542;2022-12-11T05:36:28;111.93;;;43.70;;
57107;SDS011;42987;52.916;6.542;2022-12-11T05:38:56;126.27;;;45.47;;
57107;SDS011;42987;52.916;6.542;2022-12-11T05:41:28;117.07;;;43.88;;
57107;SDS011;42987;52.916;6.542;2022-12-11T05:43:55;128.20;;;47.30;;
57107;SDS011;42987;52.916;6.542;2022-12-11T05:46:22;165.63;;;51.10;;
57107;SDS011;42987;52.916;6.542;2022-12-11T05:48:51;110.53;;;43.77;;
57107;SDS011;42987;52.916;6.542;2022-12-11T05:51:19;125.00;;;45.77;;
57107;SDS011;42987;52.916;6.542;2022-12-11T05:53:46;112.83;;;44.33;;
57107;SDS011;42987;52.916;6.542;2022-12-11T05:56:17;119.57;;;44.57;;
57107;SDS011;42987;52.916;6.542;2022-12-11T05:58:45;118.53;;;44.47;;
57107;SDS011;42987;52.916;6.542;2022-12-11T06:01:23;110.93;;;43.57;;
57107;SDS011;42987;52.916;6.542;2022-12-11T06:04:00;125.07;;;44.73;;
57107;SDS011;42987;52.916;6.542;2022-12-11T06:06:26;124.80;;;45.40;;
57107;SDS011;42987;52.916;6.542;2022-12-11T06:08:53;121.73;;;44.83;;
57107;SDS011;42987;52.916;6.542;2022-12-11T06:11:20;124.07;;;44.63;;
57107;SDS011;42987;52.916;6.542;2022-12-11T06:13:47;125.53;;;45.87;;
57107;SDS011;42987;52.916;6.542;2022-12-11T06:16:13;108.70;;;43.77;;
57107;SDS011;42987;52.916;6.542;2022-12-11T06:18:40;123.63;;;44.37;;
57107;SDS011;42987;52.916;6.542;2022-12-11T06:21:11;123.00;;;45.33;;
57107;SDS011;42987;52.916;6.542;2022-12-11T06:23:41;104.77;;;42.20;;
57107;SDS011;42987;52.916;6.542;2022-12-11T06:26:08;137.57;;;48.30;;
57107;SDS011;42987;52.916;6.542;2022-12-11T06:28:34;107.80;;;41.97;;
57107;SDS011;42987;52.916;6.542;2022-12-11T06:31:01;128.30;;;46.03;;
57107;SDS011;42987;52.916;6.542;2022-12-11T06:33:27;125.60;;;45.07;;
57107;SDS011;42987;52.916;6.542;2022-12-11T06:35:53;104.30;;;41.40;;
57107;SDS011;42987;52.916;6.542;2022-12-11T06:38:19;117.23;;;43.53;;
57107;SDS011;42987;52.916;6.542;2022-12-11T06:40:45;115.10;;;41.57;;
57107;SDS011;42987;52.916;6.542;2022-12-11T06:43:10;112.47;;;41.10;;
57107;SDS011;42987;52.916;6.542;2022-12-11T06:45:36;111.90;;;41.83;;
57107;SDS011;42987;52.916;6.542;2022-12-11T06:48:02;112.67;;;41.97;;
57107;SDS011;42987;52.916;6.542;2022-12-11T06:50:31;115.57;;;42.40;;
57107;SDS011;42987;52.916;6.542;2022-12-11T06:52:57;108.77;;;41.30;;
57107;SDS011;42987;52.916;6.542;2022-12-11T06:55:23;109.47;;;42.17;;
57107;SDS011;42987;52.916;6.542;2022-12-11T06:57:49;115.70;;;43.60;;
57107;SDS011;42987;52.916;6.542;2022-12-11T07:00:15;108.90;;;41.23;;
57107;SDS011;42987;52.916;6.542;2022-12-11T07:02:41;108.53;;;40.10;;
57107;SDS011;42987;52.916;6.542;2022-12-11T07:05:06;112.73;;;41.67;;
57107;SDS011;42987;52.916;6.542;2022-12-11T07:07:32;115.30;;;42.40;;
57107;SDS011;42987;52.916;6.542;2022-12-11T07:09:58;99.40;;;40.83;;
57107;SDS011;42987;52.916;6.542;2022-12-11T07:12:24;115.77;;;41.53;;
57107;SDS011;42987;52.916;6.542;2022-12-11T07:14:50;109.70;;;41.20;;
57107;SDS011;42987;52.916;6.542;2022-12-11T07:17:16;102.07;;;41.07;;
57107;SDS011;42987;52.916;6.542;2022-12-11T07:19:42;115.90;;;43.43;;
57107;SDS011;42987;52.916;6.542;2022-12-11T07:22:07;105.97;;;41.37;;
57107;SDS011;42987;52.916;6.542;2022-12-11T07:24:33;137.13;;;44.50;;
57107;SDS011;42987;52.916;6.542;2022-12-11T07:26:59;122.80;;;44.60;;
57107;SDS011;42987;52.916;6.542;2022-12-11T07:29:25;115.97;;;42.37;;
57107;SDS011;42987;52.916;6.542;2022-12-11T07:31:51;109.53;;;42.97;;
57107;SDS011;42987;52.916;6.542;2022-12-11T07:34:17;120.67;;;43.03;;
57107;SDS011;42987;52.916;6.542;2022-12-11T07:36:42;109.87;;;42.10;;
57107;SDS011;42987;52.916;6.542;2022-12-11T07:39:09;121.77;;;42.77;;
57107;SDS011;42987;52.916;6.542;2022-12-11T07:41:36;129.27;;;45.13;;
57107;SDS011;42987;52.916;6.542;2022-12-11T07:44:02;113.40;;;41.77;;
57107;SDS011;42987;52.916;6.542;2022-12-11T07:46:29;109.97;;;40.80;;
57107;SDS011;42987;52.916;6.542;2022-12-11T07:48:57;126.97;;;45.63;;
57107;SDS011;42987;52.916;6.542;2022-12-11T07:51:34;112.90;;;43.40;;
57107;SDS011;42987;52.916;6.542;2022-12-11T07:54:03;121.10;;;44.43;;
57107;SDS011;42987;52.916;6.542;2022-12-11T07:56:31;104.53;;;40.60;;
57107;SDS011;42987;52.916;6.542;2022-12-11T07:58:58;121.63;;;43.80;;
57107;SDS011;42987;52.916;6.542;2022-12-11T08:01:26;117.77;;;43.43;;
57107;SDS011;42987;52.916;6.542;2022-12-11T08:03:53;119.23;;;43.03;;
57107;SDS011;42987;52.916;6.542;2022-12-11T08:06:19;117.57;;;43.87;;
57107;SDS011;42987;52.916;6.542;2022-12-11T08:08:50;126.73;;;45.17;;
57107;SDS011;42987;52.916;6.542;2022-12-11T08:11:18;133.73;;;44.83;;
57107;SDS011;42987;52.916;6.542;2022-12-11T08:13:43;125.30;;;44.30;;
57107;SDS011;42987;52.916;6.542;2022-12-11T08:16:10;147.90;;;48.43;;
57107;SDS011;42987;52.916;6.542;2022-12-11T08:18:38;117.67;;;43.47;;
57107;SDS011;42987;52.916;6.542;2022-12-11T08:21:05;130.63;;;46.10;;
57107;SDS011;42987;52.916;6.542;2022-12-11T08:23:32;127.67;;;43.60;;
57107;SDS011;42987;52.916;6.542;2022-12-11T08:26:01;117.87;;;43.43;;
57107;SDS011;42987;52.916;6.542;2022-12-11T08:28:28;106.78;;;42.55;;
57107;SDS011;42987;52.916;6.542;2022-12-11T08:30:54;106.23;;;43.37;;
57107;SDS011;42987;52.916;6.542;2022-12-11T08:33:20;115.63;;;42.37;;
57107;SDS011;42987;52.916;6.542;2022-12-11T08:35:46;112.63;;;42.20;;
57107;SDS011;42987;52.916;6.542;2022-12-11T08:38:12;115.30;;;45.07;;
57107;SDS011;42987;52.916;6.542;2022-12-11T08:40:38;135.60;;;46.53;;
57107;SDS011;42987;52.916;6.542;2022-12-11T08:43:03;112.90;;;43.97;;
57107;SDS011;42987;52.916;6.542;2022-12-11T08:45:29;119.70;;;46.30;;
57107;SDS011;42987;52.916;6.542;2022-12-11T08:47:56;118.63;;;43.80;;
57107;SDS011;42987;52.916;6.542;2022-12-11T08:50:22;124.83;;;45.47;;
57107;SDS011;42987;52.916;6.542;2022-12-11T08:52:48;115.53;;;44.17;;
57107;SDS011;42987;52.916;6.542;2022-12-11T08:55:14;115.90;;;44.93;;
57107;SDS011;42987;52.916;6.542;2022-12-11T08:57:40;128.87;;;46.70;;
57107;SDS011;42987;52.916;6.542;2022-12-11T09:00:06;126.63;;;46.70;;
57107;SDS011;42987;52.916;6.542;2022-12-11T09:02:33;133.00;;;47.47;;
57107;SDS011;42987;52.916;6.542;2022-12-11T09:04:59;114.63;;;44.07;;
57107;SDS011;42987;52.916;6.542;2022-12-11T09:07:25;115.00;;;43.33;;
57107;SDS011;42987;52.916;6.542;2022-12-11T09:09:54;140.67;;;49.63;;
57107;SDS011;42987;52.916;6.542;2022-12-11T09:12:20;139.70;;;47.77;;
57107;SDS011;42987;52.916;6.542;2022-12-11T09:14:47;129.07;;;46.63;;
57107;SDS011;42987;52.916;6.542;2022-12-11T09:17:12;150.23;;;50.87;;
57107;SDS011;42987;52.916;6.542;2022-12-11T09:19:38;125.23;;;46.80;;
57107;SDS011;42987;52.916;6.542;2022-12-11T09:22:04;126.73;;;46.67;;
57107;SDS011;42987;52.916;6.542;2022-12-11T09:24:29;115.50;;;44.00;;
57107;SDS011;42987;52.916;6.542;2022-12-11T09:26:55;128.97;;;48.13;;
57107;SDS011;42987;52.916;6.542;2022-12-11T09:29:21;113.70;;;43.40;;
57107;SDS011;42987;52.916;6.542;2022-12-11T09:31:46;118.97;;;46.27;;
57107;SDS011;42987;52.916;6.542;2022-12-11T09:34:13;115.00;;;44.47;;
57107;SDS011;42987;52.916;6.542;2022-12-11T09:36:40;117.57;;;45.83;;
57107;SDS011;42987;52.916;6.542;2022-12-11T09:39:07;106.30;;;43.07;;
57107;SDS011;42987;52.916;6.542;2022-12-11T09:41:47;113.73;;;44.80;;
57107;SDS011;42987;52.916;6.542;2022-12-11T09:44:40;116.93;;;45.07;;
57107;SDS011;42987;52.916;6.542;2022-12-11T09:50:05;145.97;;;48.40;;
57107;SDS011;42987;52.916;6.542;2022-12-11T10:07:17;100.07;;;42.13;;
57107;SDS011;42987;52.916;6.542;2022-12-11T10:15:55;98.28;;;42.10;;
57107;SDS011;42987;52.916;6.542;2022-12-11T10:18:39;116.07;;;43.57;;
57107;SDS011;42987;52.916;6.542;2022-12-11T10:21:06;117.40;;;44.43;;
57107;SDS011;42987;52.916;6.542;2022-12-11T10:23:35;109.70;;;43.87;;
57107;SDS011;42987;52.916;6.542;2022-12-11T10:26:29;112.33;;;43.73;;
57107;SDS011;42987;52.916;6.542;2022-12-11T10:28:58;100.37;;;41.47;;
57107;SDS011;42987;52.916;6.542;2022-12-11T10:36:30;99.83;;;42.13;;
57107;SDS011;42987;52.916;6.542;2022-12-11T10:38:59;147.95;;;48.45;;
57107;SDS011;42987;52.916;6.542;2022-12-11T10:41:32;108.13;;;42.80;;
57107;SDS011;42987;52.916;6.542;2022-12-11T10:44:12;109.97;;;41.80;;
57107;SDS011;42987;52.916;6.542;2022-12-11T10:46:43;107.35;;;42.92;;
57107;SDS011;42987;52.916;6.542;2022-12-11T10:49:23;97.40;;;41.50;;
57107;SDS011;42987;52.916;6.542;2022-12-11T10:51:51;93.87;;;41.80;;
57107;SDS011;42987;52.916;6.542;2022-12-11T10:57:00;96.10;;;40.30;;
57107;SDS011;42987;52.916;6.542;2022-12-11T10:59:32;92.33;;;40.80;;
57107;SDS011;42987;52.916;6.542;2022-12-11T11:02:04;139.30;;;46.80;;
57107;SDS011;42987;52.916;6.542;2022-12-11T11:04:40;149.33;;;47.87;;
57107;SDS011;42987;52.916;6.542;2022-12-11T11:07:10;98.28;;;41.97;;
57107;SDS011;42987;52.916;6.542;2022-12-11T11:09:43;105.10;;;43.03;;
57107;SDS011;42987;52.916;6.542;2022-12-11T11:12:16;99.53;;;41.50;;
57107;SDS011;42987;52.916;6.542;2022-12-11T11:15:13;100.87;;;42.27;;
57107;SDS011;42987;52.916;6.542;2022-12-11T11:17:43;134.23;;;46.20;;
57107;SDS011;42987;52.916;6.542;2022-12-11T11:20:13;114.27;;;44.40;;
57107;SDS011;42987;52.916;6.542;2022-12-11T11:22:45;137.57;;;49.47;;
57107;SDS011;42987;52.916;6.542;2022-12-11T11:25:16;107.63;;;42.87;;
57107;SDS011;42987;52.916;6.542;2022-12-11T11:27:48;102.93;;;42.93;;
57107;SDS011;42987;52.916;6.542;2022-12-11T11:33:17;131.30;;;46.50;;
57107;SDS011;42987;52.916;6.542;2022-12-11T11:38:22;110.87;;;45.20;;
57107;SDS011;42987;52.916;6.542;2022-12-11T11:43:50;107.47;;;43.67;;
57107;SDS011;42987;52.916;6.542;2022-12-11T11:46:22;109.00;;;44.30;;
57107;SDS011;42987;52.916;6.542;2022-12-11T11:49:22;123.50;;;48.03;;
57107;SDS011;42987;52.916;6.542;2022-12-11T11:52:17;113.63;;;45.37;;
57107;SDS011;42987;52.916;6.542;2022-12-11T11:57:34;151.53;;;49.37;;
57107;SDS011;42987;52.916;6.542;2022-12-11T12:00:19;120.70;;;46.53;;
57107;SDS011;42987;52.916;6.542;2022-12-11T12:02:55;104.50;;;43.50;;
57107;SDS011;42987;52.916;6.542;2022-12-11T12:08:21;163.43;;;51.07;;
57107;SDS011;42987;52.916;6.542;2022-12-11T12:19:42;100.53;;;41.90;;
57107;SDS011;42987;52.916;6.542;2022-12-11T12:42:44;102.43;;;45.67;;
57107;SDS011;42987;52.916;6.542;2022-12-11T12:47:38;118.70;;;48.30;;
57107;SDS011;42987;52.916;6.542;2022-12-11T12:50:20;108.73;;;46.27;;
57107;SDS011;42987;52.916;6.542;2022-12-11T12:52:49;101.93;;;46.93;;
57107;SDS011;42987;52.916;6.542;2022-12-11T12:55:21;104.80;;;46.00;;
57107;SDS011;42987;52.916;6.542;2022-12-11T12:57:57;85.60;;;42.80;;
57107;SDS011;42987;52.916;6.542;2022-12-11T13:02:53;115.87;;;49.80;;
57107;SDS011;42987;52.916;6.542;2022-12-11T13:05:24;94.23;;;45.30;;
57107;SDS011;42987;52.916;6.542;2022-12-11T13:07:56;99.17;;;43.53;;
57107;SDS011;42987;52.916;6.542;2022-12-11T13:10:29;91.20;;;44.63;;
57107;SDS011;42987;52.916;6.542;2022-12-11T13:12:57;97.87;;;45.30;;
57107;SDS011;42987;52.916;6.542;2022-12-11T13:20:51;86.43;;;42.80;;
57107;SDS011;42987;52.916;6.542;2022-12-11T13:23:18;89.80;;;43.63;;
57107;SDS011;42987;52.916;6.542;2022-12-11T13:25:54;103.30;;;46.70;;
57107;SDS011;42987;52.916;6.542;2022-12-11T13:28:25;91.87;;;44.67;;
57107;SDS011;42987;52.916;6.542;2022-12-11T13:31:23;110.63;;;47.23;;
57107;SDS011;42987;52.916;6.542;2022-12-11T13:34:07;107.40;;;48.17;;
57107;SDS011;42987;52.916;6.542;2022-12-11T13:36:50;93.68;;;44.67;;
57107;SDS011;42987;52.916;6.542;2022-12-11T13:39:22;95.07;;;44.97;;
57107;SDS011;42987;52.916;6.542;2022-12-11T13:42:02;88.80;;;45.20;;
57107;SDS011;42987;52.916;6.542;2022-12-11T13:44:38;99.07;;;44.03;;
57107;SDS011;42987;52.916;6.542;2022-12-11T13:47:06;96.47;;;46.27;;
57107;SDS011;42987;52.916;6.542;2022-12-11T13:49:39;88.83;;;44.70;;
57107;SDS011;42987;52.916;6.542;2022-12-11T13:52:14;91.20;;;46.43;;
57107;SDS011;42987;52.916;6.542;2022-12-11T13:54:50;137.27;;;52.60;;
57107;SDS011;42987;52.916;6.542;2022-12-11T13:57:18;91.17;;;47.10;;
57107;SDS011;42987;52.916;6.542;2022-12-11T13:59:47;103.13;;;48.63;;
57107;SDS011;42987;52.916;6.542;2022-12-11T14:05:15;77.60;;;41.63;;
57107;SDS011;42987;52.916;6.542;2022-12-11T14:07:42;85.97;;;44.40;;
57107;SDS011;42987;52.916;6.542;2022-12-11T14:13:04;86.90;;;47.33;;
57107;SDS011;42987;52.916;6.542;2022-12-11T14:15:35;87.53;;;49.20;;
57107;SDS011;42987;52.916;6.542;2022-12-11T14:18:02;86.67;;;45.97;;
57107;SDS011;42987;52.916;6.542;2022-12-11T14:20:30;86.33;;;47.13;;
57107;SDS011;42987;52.916;6.542;2022-12-11T14:23:05;85.70;;;50.43;;
57107;SDS011;42987;52.916;6.542;2022-12-11T14:25:41;75.97;;;45.43;;
57107;SDS011;42987;52.916;6.542;2022-12-11T14:28:16;85.23;;;46.73;;
57107;SDS011;42987;52.916;6.542;2022-12-11T14:30:45;88.77;;;44.10;;
57107;SDS011;42987;52.916;6.542;2022-12-11T14:33:16;66.13;;;41.07;;
57107;SDS011;42987;52.916;6.542;2022-12-11T14:35:44;64.90;;;41.67;;
57107;SDS011;42987;52.916;6.542;2022-12-11T14:38:15;67.90;;;43.07;;
57107;SDS011;42987;52.916;6.542;2022-12-11T14:40:44;59.33;;;39.27;;
57107;SDS011;42987;52.916;6.542;2022-12-11T14:43:19;59.23;;;37.20;;
57107;SDS011;42987;52.916;6.542;2022-12-11T14:46:03;65.57;;;38.73;;
57107;SDS011;42987;52.916;6.542;2022-12-11T14:48:34;62.23;;;38.20;;
57107;SDS011;42987;52.916;6.542;2022-12-11T14:53:32;61.63;;;37.57;;
57107;SDS011;42987;52.916;6.542;2022-12-11T14:58:29;60.17;;;40.07;;
57107;SDS011;42987;52.916;6.542;2022-12-11T15:01:05;62.77;;;42.47;;
57107;SDS011;42987;52.916;6.542;2022-12-11T15:03:45;54.37;;;35.97;;
57107;SDS011;42987;52.916;6.542;2022-12-11T15:06:30;50.40;;;33.57;;
57107;SDS011;42987;52.916;6.542;2022-12-11T15:09:08;51.20;;;34.77;;
57107;SDS011;42987;52.916;6.542;2022-12-11T15:11:45;51.50;;;34.30;;
57107;SDS011;42987;52.916;6.542;2022-12-11T15:14:14;54.93;;;34.70;;
57107;SDS011;42987;52.916;6.542;2022-12-11T15:16:42;51.33;;;35.00;;
57107;SDS011;42987;52.916;6.542;2022-12-11T15:19:15;54.47;;;35.27;;
57107;SDS011;42987;52.916;6.542;2022-12-11T15:21:54;48.87;;;33.57;;
57107;SDS011;42987;52.916;6.542;2022-12-11T15:24:35;61.40;;;37.63;;
57107;SDS011;42987;52.916;6.542;2022-12-11T15:27:04;53.73;;;35.67;;
57107;SDS011;42987;52.916;6.542;2022-12-11T15:29:35;58.60;;;37.90;;
57107;SDS011;42987;52.916;6.542;2022-12-11T15:34:55;53.63;;;34.43;;
57107;SDS011;42987;52.916;6.542;2022-12-11T15:37:26;65.03;;;37.67;;
57107;SDS011;42987;52.916;6.542;2022-12-11T15:39:52;54.70;;;35.63;;
57107;SDS011;42987;52.916;6.542;2022-12-11T15:42:31;53.17;;;34.03;;
57107;SDS011;42987;52.916;6.542;2022-12-11T15:45:06;50.27;;;32.93;;
57107;SDS011;42987;52.916;6.542;2022-12-11T15:47:42;51.30;;;32.80;;
57107;SDS011;42987;52.916;6.542;2022-12-11T15:50:22;57.37;;;34.63;;
57107;SDS011;42987;52.916;6.542;2022-12-11T15:52:50;51.50;;;33.97;;
57107;SDS011;42987;52.916;6.542;2022-12-11T15:55:18;50.67;;;32.83;;
57107;SDS011;42987;52.916;6.542;2022-12-11T15:57:45;53.90;;;33.53;;
57107;SDS011;42987;52.916;6.542;2022-12-11T16:00:14;50.83;;;32.77;;
57107;SDS011;42987;52.916;6.542;2022-12-11T16:02:41;46.83;;;31.67;;
57107;SDS011;42987;52.916;6.542;2022-12-11T16:05:07;50.83;;;32.13;;
57107;SDS011;42987;52.916;6.542;2022-12-11T16:07:32;51.70;;;32.17;;
57107;SDS011;42987;52.916;6.542;2022-12-11T16:09:58;49.57;;;31.90;;
57107;SDS011;42987;52.916;6.542;2022-12-11T16:12:24;47.43;;;30.87;;
57107;SDS011;42987;52.916;6.542;2022-12-11T16:14:50;47.27;;;29.93;;
57107;SDS011;42987;52.916;6.542;2022-12-11T16:17:16;49.80;;;30.90;;
57107;SDS011;42987;52.916;6.542;2022-12-11T16:19:42;47.27;;;30.53;;
57107;SDS011;42987;52.916;6.542;2022-12-11T16:22:09;54.03;;;31.67;;